Terminal Aerodrome Forecast
Issued by NWS Austin/San Antonio, TX

Home | Current Version | Previous Version | Text Only | Print | Product List | Glossary On
Versions: 1 2 3 4 5 6 7 8 9 10 11 12 13 14 15 16
000
FTUS44 KEWX 230533
TAFAUS
TAF
KAUS 230533Z 2306/2412 17009KT P6SM BKN015
     FM230800 18007KT P6SM OVC007
     FM231400 18012KT P6SM BKN015
     FM231600 18020G30KT P6SM BKN250
     FM240600 17017G23KT P6SM OVC015=

USA.gov is the U.S. government's official web portal to all federal, state and local government web resources and services.